createdAt,value
2022-10-11T00:00:58.166Z,56.49
2022-10-11T00:06:11.051Z,56.21
2022-10-11T00:11:25.188Z,56.09
2022-10-11T00:16:42.277Z,56.22
2022-10-11T00:21:56.156Z,56.22
2022-10-11T00:27:09.919Z,55.93
2022-10-11T00:32:22.669Z,56.18
2022-10-11T00:37:37.418Z,56.57
2022-10-11T00:42:51.857Z,57.09
2022-10-11T00:48:11.933Z,56.62
2022-10-11T00:53:26.177Z,55.97
2022-10-11T00:58:41.259Z,56.73
2022-10-11T01:03:56.442Z,56.83
2022-10-11T01:09:10.945Z,56.96
2022-10-11T01:14:24.998Z,56.80
2022-10-11T01:19:52.710Z,57.29
2022-10-11T01:25:08.877Z,57.26
2022-10-11T01:30:27.147Z,57.58
2022-10-11T01:35:45.461Z,57.27
2022-10-11T01:41:00.322Z,57.18
2022-10-11T01:46:13.674Z,57.35
2022-10-11T01:51:47.590Z,56.91
2022-10-11T01:57:06.888Z,57.77
2022-10-11T02:02:24.436Z,57.77
2022-10-11T02:07:36.787Z,57.61
2022-10-11T02:12:55.581Z,57.66
2022-10-11T02:18:11.782Z,57.74
2022-10-11T02:23:30.348Z,57.89
2022-10-11T02:28:43.391Z,57.96
2022-10-11T02:33:56.462Z,57.97
2022-10-11T02:39:16.920Z,57.59
2022-10-11T02:44:40.535Z,58.06
2022-10-11T02:49:54.277Z,57.93
2022-10-11T02:55:08.209Z,57.94
2022-10-11T03:00:22.432Z,58.34
2022-10-11T03:05:40.616Z,58.42
2022-10-11T03:10:53.858Z,58.22
2022-10-11T03:16:07.011Z,58.22
2022-10-11T03:21:19.715Z,57.89
2022-10-11T03:26:34.005Z,58.15
2022-10-11T03:31:46.831Z,58.61
2022-10-11T03:37:00.119Z,58.24
2022-10-11T03:42:13.906Z,58.14
2022-10-11T03:47:27.476Z,58.54
2022-10-11T03:52:40.598Z,58.84
2022-10-11T03:57:54.875Z,58.56
2022-10-11T04:03:07.678Z,58.30
2022-10-11T04:08:22.425Z,58.85
2022-10-11T04:13:36.827Z,58.53
2022-10-11T04:18:49.639Z,59.21
2022-10-11T04:24:02.419Z,59.12
2022-10-11T04:29:16.704Z,58.76
2022-10-11T04:34:29.635Z,59.40
2022-10-11T04:39:42.842Z,58.75
2022-10-11T04:44:56.219Z,57.50
2022-10-11T04:50:09.468Z,58.06
2022-10-11T04:55:22.725Z,54.49
2022-10-11T05:00:36.521Z,54.06
2022-10-11T05:05:50.388Z,53.00
2022-10-11T05:11:06.188Z,51.73
2022-10-11T05:16:19.627Z,50.39
2022-10-11T05:21:32.513Z,48.65
2022-10-11T05:26:45.855Z,46.69
2022-10-11T05:31:59.032Z,46.54
2022-10-11T05:37:13.299Z,45.57
2022-10-11T05:42:29.785Z,39.30
2022-10-11T05:47:44.754Z,38.29
2022-10-11T05:52:58.646Z,35.52
2022-10-11T05:58:13.837Z,36.91
2022-10-11T06:03:27.020Z,37.16
2022-10-11T06:08:39.624Z,36.23
2022-10-11T06:13:55.162Z,34.52
2022-10-11T06:19:08.357Z,30.16
2022-10-11T06:24:21.589Z,29.59
2022-10-11T06:29:34.881Z,21.39
2022-10-11T06:34:48.284Z,22.25
2022-10-11T06:40:01.549Z,21.16
2022-10-11T06:45:15.384Z,26.44
2022-10-11T06:50:54.393Z,17.90
2022-10-11T06:56:05.595Z,22.32
2022-10-11T07:01:20.224Z,16.67
2022-10-11T07:06:36.669Z,19.54
2022-10-11T07:11:51.262Z,18.27
2022-10-11T07:17:05.651Z,20.14
2022-10-11T07:22:20.941Z,18.96
2022-10-11T07:27:35.309Z,20.59
2022-10-11T07:32:48.184Z,19.16
2022-10-11T07:38:02.502Z,14.81
2022-10-11T07:43:59.062Z,13.81
2022-10-11T07:49:12.479Z,14.26
2022-10-11T07:54:26.006Z,12.83
2022-10-11T07:59:39.300Z,11.62
2022-10-11T08:04:52.595Z,11.62
2022-10-11T08:10:07.598Z,11.18
2022-10-11T08:15:22.099Z,10.52
2022-10-11T08:20:39.660Z,10.51
2022-10-11T08:25:57.459Z,10.43
2022-10-11T08:31:14.474Z,10.82
2022-10-11T08:36:28.817Z,10.69
2022-10-11T08:41:55.335Z,10.25
2022-10-11T08:47:43.194Z,10.13
2022-10-11T08:53:02.188Z,9.60
2022-10-11T08:58:04.545Z,9.32
2022-10-11T09:03:28.126Z,9.87
2022-10-11T09:08:47.146Z,8.86
2022-10-11T09:14:11.179Z,8.86
2022-10-11T09:19:24.077Z,9.57
2022-10-11T09:24:53.746Z,8.95
2022-10-11T09:30:01.803Z,9.40
2022-10-11T09:35:13.954Z,9.28
2022-10-11T09:40:33.242Z,8.73
2022-10-11T09:45:35.387Z,9.25
2022-10-11T09:50:39.599Z,8.60
2022-10-11T09:55:53.227Z,8.06
2022-10-11T10:01:07.348Z,7.70
2022-10-11T10:06:16.992Z,7.56
2022-10-11T10:11:19.950Z,7.29
2022-10-11T10:16:24.008Z,7.20
2022-10-11T10:21:29.243Z,7.13
2022-10-11T10:26:32.349Z,7.78
2022-10-11T10:31:55.221Z,7.63
2022-10-11T10:37:14.958Z,7.54
2022-10-11T10:42:19.944Z,7.54
2022-10-11T10:48:13.180Z,7.19
2022-10-11T10:53:24.420Z,7.75
2022-10-11T10:59:05.869Z,7.05
2022-10-11T11:04:22.710Z,7.26
2022-10-11T11:09:36.895Z,7.52
2022-10-11T11:14:50.116Z,8.29
2022-10-11T11:20:22.854Z,8.01
2022-10-11T11:25:40.317Z,9.08
2022-10-11T11:30:45.954Z,9.50
2022-10-11T11:35:52.878Z,10.03
2022-10-11T11:41:02.209Z,10.01
2022-10-11T11:46:13.141Z,10.73
2022-10-11T11:51:21.290Z,11.35
2022-10-11T11:56:29.339Z,11.43
2022-10-11T12:01:40.078Z,12.15
2022-10-11T12:07:04.148Z,13.07
2022-10-11T12:12:10.087Z,13.64
2022-10-11T12:17:23.594Z,13.78
2022-10-11T12:22:31.226Z,14.94
2022-10-11T12:27:48.793Z,14.81
2022-10-11T12:32:51.797Z,15.32
2022-10-11T12:38:23.130Z,14.96
2022-10-11T12:43:26.768Z,14.19
2022-10-11T12:48:38.499Z,14.59
2022-10-11T12:54:21.864Z,14.19
2022-10-11T12:59:23.508Z,14.58
2022-10-11T13:04:31.699Z,15.70
2022-10-11T13:09:39.219Z,15.90
2022-10-11T13:14:45.606Z,15.92
2022-10-11T13:19:59.329Z,16.30
2022-10-11T13:25:05.341Z,16.91
2022-10-11T13:30:16.565Z,16.92
2022-10-11T13:35:30.177Z,17.25
2022-10-11T13:40:32.378Z,17.51
2022-10-11T13:45:37.092Z,18.27
2022-10-11T13:50:39.852Z,19.25
2022-10-11T13:55:41.830Z,19.55
2022-10-11T14:00:57.550Z,20.43
2022-10-11T14:06:00.553Z,21.79
2022-10-11T14:11:06.490Z,22.48
2022-10-11T14:16:16.291Z,23.66
2022-10-11T14:21:28.779Z,24.21
2022-10-11T14:26:34.618Z,26.18
2022-10-11T14:31:41.305Z,27.68
2022-10-11T14:36:44.890Z,29.22
2022-10-11T14:41:47.346Z,30.22
2022-10-11T14:46:51.885Z,32.18
2022-10-11T14:51:58.929Z,34.24
2022-10-11T14:57:03.196Z,35.85
2022-10-11T15:02:08.060Z,37.50
2022-10-11T15:07:12.395Z,38.42
2022-10-11T15:12:14.518Z,39.68
2022-10-11T15:17:16.463Z,35.67
2022-10-11T15:22:18.511Z,41.65
2022-10-11T15:27:25.391Z,42.37
2022-10-11T15:32:27.463Z,42.53
2022-10-11T15:37:32.692Z,40.29
2022-10-11T15:42:37.309Z,43.33
2022-10-11T15:47:39.379Z,38.66
2022-10-11T15:52:41.433Z,45.18
2022-10-11T15:57:43.512Z,45.31
2022-10-11T16:02:45.423Z,41.70
2022-10-11T16:07:47.915Z,45.07
2022-10-11T16:12:50.146Z,47.29
2022-10-11T16:17:52.052Z,42.98
2022-10-11T16:22:54.981Z,47.62
2022-10-11T16:27:57.017Z,48.42
2022-10-11T16:32:59.132Z,48.63
2022-10-11T16:38:01.453Z,48.82
2022-10-11T16:43:07.854Z,49.28
2022-10-11T16:48:10.268Z,50.13
2022-10-11T16:53:15.554Z,50.66
2022-10-11T16:58:18.232Z,50.44
2022-10-11T17:03:20.249Z,50.66
2022-10-11T17:08:22.316Z,51.92
2022-10-11T17:13:25.436Z,51.78
2022-10-11T17:18:27.492Z,51.33
2022-10-11T17:23:29.691Z,51.71
2022-10-11T17:28:32.738Z,48.42
2022-10-11T17:33:34.975Z,51.53
2022-10-11T17:38:36.901Z,47.76
2022-10-11T17:43:39.173Z,52.79
2022-10-11T17:48:41.794Z,53.16
2022-10-11T17:53:45.373Z,53.80
2022-10-11T17:58:48.988Z,54.34
2022-10-11T18:03:59.589Z,54.98
2022-10-11T18:09:03.725Z,54.43
2022-10-11T18:14:05.867Z,54.74
2022-10-11T18:19:10.071Z,50.78
2022-10-11T18:24:15.462Z,54.45
2022-10-11T18:29:17.651Z,54.84
2022-10-11T18:34:19.636Z,51.17
2022-10-11T18:39:22.242Z,55.26
2022-10-11T18:44:24.360Z,56.17
2022-10-11T18:49:26.374Z,51.46
2022-10-11T18:54:28.600Z,55.44
2022-10-11T18:59:30.577Z,51.03
2022-10-11T19:04:34.358Z,55.78
2022-10-11T19:09:36.446Z,56.26
2022-10-11T19:14:38.411Z,51.50
2022-10-11T19:19:40.820Z,56.14
2022-10-11T19:24:44.475Z,56.35
2022-10-11T19:29:46.591Z,57.03
2022-10-11T19:34:49.053Z,52.54
2022-10-11T19:39:51.073Z,56.38
2022-10-11T19:44:53.117Z,57.05
2022-10-11T19:49:55.182Z,57.47
2022-10-11T19:54:57.083Z,52.81
2022-10-11T19:59:59.180Z,57.37
2022-10-11T20:05:01.094Z,53.76
2022-10-11T20:10:03.577Z,57.80
2022-10-11T20:15:06.525Z,58.72
2022-10-11T20:20:09.255Z,59.21
2022-10-11T20:25:11.421Z,59.39
2022-10-11T20:30:14.768Z,55.29
2022-10-11T20:35:16.832Z,58.52
2022-10-11T20:40:18.850Z,54.96
2022-10-11T20:45:20.981Z,58.64
2022-10-11T20:50:23.277Z,55.04
2022-10-11T20:55:25.389Z,59.18
2022-10-11T21:00:27.367Z,55.08
2022-10-11T21:05:29.491Z,59.51
2022-10-11T21:10:31.779Z,55.40
2022-10-11T21:15:33.969Z,59.89
2022-10-11T21:20:42.959Z,60.77
2022-10-11T21:25:45.282Z,60.71
2022-10-11T21:30:47.386Z,60.87
2022-10-11T21:35:49.320Z,56.94
2022-10-11T21:40:51.877Z,60.12
2022-10-11T21:45:53.925Z,60.66
2022-10-11T21:50:55.966Z,56.80
2022-10-11T21:55:59.076Z,60.52
2022-10-11T22:01:01.116Z,61.10
2022-10-11T22:06:03.924Z,56.81
2022-10-11T22:11:07.113Z,60.60
2022-10-11T22:16:11.401Z,61.13
2022-10-11T22:21:20.220Z,61.32
2022-10-11T22:26:25.169Z,61.41
2022-10-11T22:31:28.305Z,61.88
2022-10-11T22:36:30.842Z,61.86
2022-10-11T22:41:33.188Z,61.95
2022-10-11T22:46:35.323Z,62.00
2022-10-11T22:51:37.449Z,61.58
2022-10-11T22:56:39.412Z,58.79
2022-10-11T23:01:41.588Z,62.00
2022-10-11T23:06:44.338Z,62.17
2022-10-11T23:11:46.401Z,62.66
2022-10-11T23:16:51.451Z,62.05
2022-10-11T23:21:53.702Z,62.04
2022-10-11T23:26:55.738Z,62.90
2022-10-11T23:31:57.779Z,59.48
2022-10-11T23:37:00.915Z,62.87
2022-10-11T23:42:03.014Z,62.87
2022-10-11T23:47:04.934Z,59.61
2022-10-11T23:52:07.116Z,62.59
2022-10-11T23:57:09.130Z,55.50
